Time;durP1;ratioP1;P1;durP2;ratioP2;P2;SDS_P1;SDS_P2;PMS_P1;PMS_P2;Temp;Humidity;BMP_temperature;BMP_pressure;BME280_temperature;BME280_humidity;BME280_pressure;Samples;Min_cycle;Max_cycle;Signal;HPM_P1;HPM_P2
2021/09/29 00:03:34;;;;;;;;;;;14.30;99.90;;;13.37;100.00;95815.56;10486169;28;1892;-77
2021/09/29 00:08:37;;;;;;;;;;;14.40;99.90;;;13.41;100.00;95821.97;10477132;28;1969;-77
2021/09/29 00:13:40;;;;;;;;;;;14.40;99.90;;;13.30;100.00;95810.53;10472563;28;1899;-77
2021/09/29 00:18:42;;;;;;;;;;;14.40;99.90;;;13.34;100.00;95802.63;10473043;28;2042;-77
2021/09/29 00:23:47;;;;;;;;;;;14.30;99.90;;;13.44;100.00;95816.00;10479373;28;2123;-76
2021/09/29 00:28:50;;;;;;;;;;;14.40;99.90;;;13.51;100.00;95806.47;10485592;28;2103;-77
2021/09/29 00:33:58;;;;;;;;;;;14.50;99.90;;;13.54;100.00;95813.16;10462097;28;2090;-77
2021/09/29 00:39:01;;;;;;;;;;;14.50;99.90;;;13.49;100.00;95811.34;10467516;28;2074;-76
2021/09/29 00:44:04;;;;;;;;;;;14.50;99.90;;;13.47;100.00;95802.72;10466701;28;2101;-77
2021/09/29 00:49:07;;;;;;;;;;;14.50;99.90;;;13.48;100.00;95811.63;10479717;28;2120;-76
2021/09/29 00:54:10;;;;;;;;;;;14.50;99.90;;;13.54;100.00;95799.66;10472844;28;2200;-76
2021/09/29 00:59:14;;;;;;;;;;;14.50;99.90;;;13.55;100.00;95798.59;10465462;28;2167;-76
2021/09/29 01:04:17;;;;;;;;;;;14.50;99.90;;;13.49;100.00;95795.16;10462174;28;2196;-76
2021/09/29 01:09:20;;;;;;;;;;;14.50;99.90;;;13.46;100.00;95790.31;10479456;28;2095;-76
2021/09/29 01:14:25;;;;;;;;;;;14.50;99.90;;;13.47;100.00;95799.22;10485598;28;2126;-76
2021/09/29 01:19:28;;;;;;;;;;;14.50;99.90;;;13.44;100.00;95797.91;10484529;28;2165;-77
2021/09/29 01:24:31;;;;;;;;;;;14.50;99.90;;;13.44;100.00;95802.50;10478570;28;2198;-77
2021/09/29 01:29:34;;;;;;;;;;;14.50;99.90;;;13.54;100.00;95802.34;10468901;28;2120;-76
2021/09/29 01:34:37;;;;;;;;;;;14.50;99.90;;;13.54;100.00;95802.34;10480884;28;2072;-77
2021/09/29 01:39:40;;;;;;;;;;;14.50;99.90;;;13.51;100.00;95813.75;10470507;28;2155;-78
2021/09/29 01:44:43;;;;;;;;;;;14.50;99.90;;;13.49;100.00;95819.47;10490119;28;2095;-76
2021/09/29 01:49:46;;;;;;;;;;;14.50;99.90;;;13.47;100.00;95823.53;10481576;28;2053;-77
2021/09/29 01:54:49;;;;;;;;;;;14.40;99.90;;;13.39;100.00;95824.97;10480947;28;2525;-78
2021/09/29 01:59:52;;;;;;;;;;;14.50;99.90;;;13.32;100.00;95821.84;10489563;28;1940;-77
2021/09/29 02:04:55;;;;;;;;;;;14.30;99.90;;;13.30;100.00;95832.13;10487255;28;2119;-77
2021/09/29 02:09:57;;;;;;;;;;;14.30;99.90;;;13.29;100.00;95837.78;10495211;28;2254;-76
2021/09/29 02:15:00;;;;;;;;;;;14.30;99.90;;;13.21;100.00;95836.53;10487643;28;2136;-77
2021/09/29 02:20:03;;;;;;;;;;;14.30;99.90;;;13.18;100.00;95842.50;10477677;28;2190;-77
2021/09/29 02:25:06;;;;;;;;;;;14.20;99.90;;;13.24;100.00;95857.56;10491085;28;2752;-77
2021/09/29 02:30:09;;;;;;;;;;;14.20;99.90;;;13.27;100.00;95846.19;10481637;28;1996;-77
2021/09/29 02:35:12;;;;;;;;;;;14.20;99.90;;;13.21;100.00;95841.94;10491250;28;2162;-78
2021/09/29 02:40:15;;;;;;;;;;;14.20;99.90;;;13.23;100.00;95845.97;10478821;28;2154;-76
2021/09/29 02:45:18;;;;;;;;;;;14.20;99.90;;;13.20;100.00;95861.91;10486885;28;2127;-77
2021/09/29 02:50:21;;;;;;;;;;;14.20;99.90;;;13.30;100.00;95872.63;10473400;28;2170;-79
2021/09/29 02:55:24;;;;;;;;;;;14.20;99.90;;;13.37;100.00;95878.47;10482373;28;2119;-77
2021/09/29 03:00:27;;;;;;;;;;;14.30;99.90;;;13.48;100.00;95879.94;10481561;28;2040;-77
2021/09/29 03:05:29;;;;;;;;;;;14.40;99.90;;;13.49;100.00;95880.75;10463757;28;2111;-78
2021/09/29 03:10:33;;;;;;;;;;;14.40;99.90;;;13.60;100.00;95886.81;10454444;28;2544;-77
2021/09/29 03:15:36;;;;;;;;;;;14.50;99.90;;;13.60;100.00;95892.22;10465671;28;2110;-77
2021/09/29 03:20:38;;;;;;;;;;;14.60;99.90;;;13.58;100.00;95891.72;10451288;28;2028;-77
2021/09/29 03:25:41;;;;;;;;;;;14.60;99.90;;;13.63;100.00;95895.16;10443478;28;2194;-76
2021/09/29 03:30:44;;;;;;;;;;;14.60;99.90;;;13.62;100.00;95904.38;10464703;28;2103;-77
2021/09/29 03:35:47;;;;;;;;;;;14.60;99.90;;;13.68;100.00;95899.72;10465374;28;2061;-76
2021/09/29 03:40:50;;;;;;;;;;;14.60;99.90;;;13.68;100.00;95897.81;10480723;28;2252;-78
2021/09/29 03:45:53;;;;;;;;;;;14.60;99.90;;;13.68;100.00;95883.50;10466120;28;2131;-76
2021/09/29 03:50:56;;;;;;;;;;;14.70;99.90;;;13.61;100.00;95888.44;10458731;28;2217;-77
2021/09/29 03:55:59;;;;;;;;;;;14.60;99.90;;;13.49;100.00;95900.47;10457504;28;2017;-78
2021/09/29 04:01:02;;;;;;;;;;;14.60;99.90;;;13.44;100.00;95905.13;10463931;28;2123;-76
2021/09/29 04:06:09;;;;;;;;;;;14.60;99.90;;;13.35;100.00;95891.44;10471661;28;2107;-77
2021/09/29 04:11:12;;;;;;;;;;;14.40;99.90;;;13.27;100.00;95897.47;10467785;28;2051;-78
2021/09/29 04:16:14;;;;;;;;;;;14.40;99.90;;;13.32;100.00;95897.44;10459282;28;2268;-78
2021/09/29 04:21:17;;;;;;;;;;;14.30;99.90;;;13.26;100.00;95895.88;10433019;28;1937;-78
2021/09/29 04:26:20;;;;;;;;;;;14.30;99.90;;;13.27;100.00;95889.38;10450575;28;2047;-78
2021/09/29 04:31:23;;;;;;;;;;;14.30;99.90;;;13.33;100.00;95899.03;10463793;28;2049;-78
2021/09/29 04:36:26;;;;;;;;;;;14.30;99.90;;;13.35;100.00;95907.63;10470480;28;1947;-78
2021/09/29 04:41:29;;;;;;;;;;;14.40;99.90;;;13.38;100.00;95907.06;10446373;28;2033;-77
2021/09/29 04:46:32;;;;;;;;;;;14.40;99.90;;;13.41;100.00;95906.50;10450058;28;2104;-77
2021/09/29 04:51:35;;;;;;;;;;;14.40;99.90;;;13.41;100.00;95911.88;10441175;28;1914;-77
2021/09/29 04:56:37;;;;;;;;;;;14.40;99.90;;;13.39;100.00;95918.69;10463543;28;1974;-77
2021/09/29 05:01:40;;;;;;;;;;;14.40;99.90;;;13.31;100.00;95919.31;10467291;28;2025;-78
2021/09/29 05:06:44;;;;;;;;;;;14.40;99.90;;;13.34;100.00;95921.44;10459683;28;2017;-78
2021/09/29 05:11:47;;;;;;;;;;;14.40;99.90;;;13.31;100.00;95930.13;10475010;28;2077;-79
2021/09/29 05:16:50;;;;;;;;;;;14.30;99.90;;;13.29;100.00;95935.78;10470595;28;2073;-76
2021/09/29 05:21:53;;;;;;;;;;;14.30;99.90;;;13.33;100.00;95933.31;10459013;28;2119;-78
2021/09/29 05:26:55;;;;;;;;;;;14.30;99.90;;;13.43;100.00;95936.72;10448954;28;2086;-78
2021/09/29 05:31:58;;;;;;;;;;;14.40;99.90;;;13.50;100.00;95942.59;10462301;28;2013;-77
2021/09/29 05:37:01;;;;;;;;;;;14.40;99.90;;;13.63;100.00;95942.97;10440057;28;1845;-77
2021/09/29 05:42:04;;;;;;;;;;;14.50;99.90;;;13.66;100.00;95945.09;10458076;28;2100;-79
2021/09/29 05:47:09;;;;;;;;;;;14.60;99.90;;;13.72;100.00;95952.03;10464421;28;1816;-77
2021/09/29 05:52:13;;;;;;;;;;;14.70;99.90;;;13.74;100.00;95947.16;10432475;28;2167;-78
2021/09/29 05:57:16;;;;;;;;;;;14.70;99.90;;;13.74;100.00;95957.94;10458061;28;1910;-80
2021/09/29 06:02:19;;;;;;;;;;;14.70;99.90;;;13.82;100.00;95961.94;10456121;28;2014;-78
2021/09/29 06:07:22;;;;;;;;;;;14.80;99.90;;;13.89;100.00;95960.47;10459135;28;1872;-77
2021/09/29 06:12:25;;;;;;;;;;;14.80;99.90;;;13.80;100.00;95975.72;10472328;28;2029;-80
2021/09/29 06:17:36;;;;;;;;;;;14.90;99.90;;;13.75;100.00;95976.59;10451537;28;1825;-78
2021/09/29 06:22:39;;;;;;;;;;;14.80;99.90;;;13.65;100.00;95984.00;10463653;28;2112;-77
2021/09/29 06:27:42;;;;;;;;;;;14.70;99.90;;;13.49;100.00;95995.00;10452565;28;2053;-79
2021/09/29 06:32:45;;;;;;;;;;;14.60;99.90;;;13.42;100.00;95994.53;10454454;28;1983;-80
2021/09/29 06:37:48;;;;;;;;;;;14.50;99.90;;;13.37;100.00;95994.56;10438085;28;2089;-79
2021/09/29 06:42:51;;;;;;;;;;;14.50;99.90;;;13.39;100.00;95989.69;10468122;28;2021;-78
2021/09/29 06:47:54;;;;;;;;;;;14.40;99.90;;;13.38;100.00;95998.88;10470991;28;2007;-80
2021/09/29 06:52:57;;;;;;;;;;;14.50;99.90;;;13.35;100.00;96001.31;10458109;28;1898;-79
2021/09/29 06:57:59;;;;;;;;;;;14.40;99.90;;;13.45;100.00;96004.75;10483664;28;1757;-78
2021/09/29 07:03:02;;;;;;;;;;;14.40;99.90;;;13.48;100.00;96009.56;10475606;28;2084;-80
2021/09/29 07:08:05;;;;;;;;;;;14.50;99.90;;;13.59;100.00;96010.25;10474338;28;2045;-78
2021/09/29 07:13:10;;;;;;;;;;;14.60;99.90;;;13.61;100.00;96023.47;10464780;28;2004;-77
2021/09/29 07:18:14;;;;;;;;;;;14.60;99.90;;;13.72;100.00;96022.28;10458642;28;2010;-76
2021/09/29 07:23:17;;;;;;;;;;;14.70;99.90;;;13.85;100.00;96024.28;10456640;28;1991;-79
2021/09/29 07:28:20;;;;;;;;;;;14.70;99.90;;;13.98;97.86;96023.59;10469586;28;2281;-78
2021/09/29 07:33:23;;;;;;;;;;;14.80;99.90;;;14.08;96.63;96041.59;10462956;28;2064;-78
2021/09/29 07:38:27;;;;;;;;;;;14.90;99.90;;;14.24;92.63;96036.78;10469852;28;2127;-77
2021/09/29 07:43:30;;;;;;;;;;;15.10;99.90;;;14.30;90.63;96046.44;10472016;28;2325;-79
2021/09/29 07:48:33;;;;;;;;;;;15.10;99.90;;;14.24;86.89;96053.81;10456424;28;2368;-81
2021/09/29 07:53:36;;;;;;;;;;;15.20;99.90;;;14.25;85.57;96054.63;10450497;28;1924;-77
2021/09/29 07:58:39;;;;;;;;;;;15.20;99.90;;;14.43;81.37;96053.84;10480831;28;1919;-79
2021/09/29 08:03:44;;;;;;;;;;;15.20;99.90;;;14.60;82.71;96056.09;10453058;28;2195;-81
2021/09/29 08:08:48;;;;;;;;;;;15.30;99.90;;;14.60;79.68;96067.72;10453644;28;1887;-81
2021/09/29 08:13:51;;;;;;;;;;;15.40;99.90;;;14.60;80.92;96078.53;10464701;28;2080;-82
2021/09/29 08:18:54;;;;;;;;;;;15.50;99.90;;;14.81;76.56;96083.66;10471963;28;1856;-80
2021/09/29 08:24:03;;;;;;;;;;;15.60;99.90;;;14.81;76.33;96094.47;10461543;28;2016;-81
2021/09/29 08:34:35;;;;;;;;;;;15.90;99.90;;;15.60;70.65;96090.00;10462151;28;2100;-80
2021/09/29 08:39:44;;;;;;;;;;;16.30;99.90;;;15.37;71.74;96107.19;10451077;28;2084;-80
2021/09/29 08:44:51;;;;;;;;;;;16.30;99.90;;;15.23;73.32;96095.50;10465958;28;2029;-82
2021/09/29 08:55:45;;;;;;;;;;;16.20;99.90;;;15.88;68.90;96100.91;10443287;28;2080;-82
2021/09/29 09:16:50;;;;;;;;;;;17.40;99.90;;;16.64;58.50;96112.97;10460322;28;2013;-83
2021/09/29 09:21:54;;;;;;;;;;;17.50;99.90;;;16.38;58.27;96109.97;10459271;28;2056;-83
2021/09/29 09:26:57;;;;;;;;;;;17.30;99.90;;;16.54;58.51;96110.50;10457548;28;2076;-83
2021/09/29 09:32:00;;;;;;;;;;;17.20;99.90;;;16.48;58.24;96103.56;10448924;28;2039;-84
2021/09/29 09:37:03;;;;;;;;;;;17.30;99.90;;;16.42;59.06;96102.06;10475023;28;1853;-83
2021/09/29 09:42:06;;;;;;;;;;;17.20;99.90;;;16.56;58.16;96105.56;10461879;28;1926;-84
2021/09/29 09:47:11;;;;;;;;;;;17.30;99.90;;;16.60;58.46;96094.88;10469463;28;2138;-85
2021/09/29 09:52:16;;;;;;;;;;;17.50;99.90;;;17.16;57.81;96094.47;10450906;28;2016;-83
2021/09/29 09:57:22;;;;;;;;;;;17.70;99.90;;;17.33;56.42;96079.41;10471483;28;1795;-81
2021/09/29 10:02:27;;;;;;;;;;;18.00;99.90;;;17.38;56.58;96080.09;10473469;28;1986;-84
2021/09/29 10:07:31;;;;;;;;;;;18.10;99.90;;;17.66;53.89;96077.22;10466817;28;1936;-83
2021/09/29 10:12:40;;;;;;;;;;;18.30;99.90;;;17.73;54.79;96072.19;10480576;28;1957;-85
2021/09/29 10:28:38;;;;;;;;;;;18.70;99.90;;;18.23;50.26;96063.75;10452476;28;1960;-84
2021/09/29 10:33:45;;;;;;;;;;;19.00;99.90;;;18.59;49.78;96061.63;10445081;28;2111;-84
2021/09/29 10:44:19;;;;;;;;;;;19.00;99.90;;;17.79;50.72;96065.50;10410474;28;2158;-80
2021/09/29 10:49:32;;;;;;;;;;;18.70;99.90;;;17.79;50.85;96060.84;10466782;28;2225;-80
2021/09/29 11:32:04;;;;;;;;;;;18.30;99.90;;;17.77;54.72;96041.34;10444714;28;2263;-80
2021/09/29 11:37:38;;;;;;;;;;;18.40;99.90;;;18.27;52.50;96038.34;10433037;28;2086;-79
2021/09/29 12:09:51;;;;;;;;;;;19.00;99.90;;;18.22;51.30;96013.97;10471132;28;1946;-79
2021/09/29 12:14:54;;;;;;;;;;;19.00;99.90;;;18.46;51.79;96007.31;10487111;28;2002;-77
2021/09/29 12:19:58;;;;;;;;;;;19.00;99.90;;;19.03;50.10;96004.50;10459735;28;2084;-77
2021/09/29 12:25:05;;;;;;;;;;;19.50;99.90;;;19.13;50.64;96004.13;10457212;28;2146;-78
2021/09/29 12:30:08;;;;;;;;;;;19.90;99.90;;;19.23;48.25;96003.03;10465942;28;2253;-78
2021/09/29 12:35:18;;;;;;;;;;;19.90;99.90;;;18.86;50.88;95999.84;10460120;28;2372;-83
2021/09/29 12:40:21;;;;;;;;;;;19.70;99.90;;;18.85;50.97;96003.69;10466315;28;1978;-83
2021/09/29 12:45:26;;;;;;;;;;;19.60;99.90;;;18.95;49.95;95997.09;10454195;28;1955;-85
2021/09/29 12:50:46;;;;;;;;;;;19.80;99.90;;;19.05;52.04;95997.59;10434314;28;1897;-79
2021/09/29 12:55:53;;;;;;;;;;;19.90;99.90;;;18.85;53.14;96007.22;10449015;28;2009;-77
2021/09/29 13:00:56;;;;;;;;;;;19.80;99.90;;;18.52;54.49;96008.75;10477054;28;2001;-78
2021/09/29 13:05:59;;;;;;;;;;;19.50;99.90;;;18.70;54.59;96006.88;10464552;28;2174;-78
2021/09/29 13:11:01;;;;;;;;;;;19.50;99.90;;;19.14;53.90;96005.72;10500432;28;1953;-82
2021/09/29 13:16:06;;;;;;;;;;;19.80;99.90;;;19.25;52.25;96003.47;10496761;28;1886;-84
2021/09/29 13:21:11;;;;;;;;;;;20.00;99.90;;;19.37;52.43;95998.97;10468163;28;1886;-80
2021/09/29 13:36:57;;;;;;;;;;;20.00;99.90;;;19.64;53.07;96007.91;10451081;28;2021;-75
2021/09/29 13:42:00;;;;;;;;;;;20.30;99.90;;;20.10;51.42;96011.72;10437715;28;2007;-75
2021/09/29 13:47:03;;;;;;;;;;;20.50;99.90;;;20.03;50.74;96009.50;10448064;28;2060;-76
2021/09/29 13:52:10;;;;;;;;;;;20.80;99.90;;;20.04;49.71;96004.84;10435886;28;2076;-77
2021/09/29 13:57:17;;;;;;;;;;;20.70;99.90;;;19.45;52.59;96005.53;10446904;28;1744;-78
2021/09/29 14:29:09;;;;;;;;;;;20.10;99.90;;;19.41;50.07;95989.03;10427797;28;2181;-74
2021/09/29 14:34:12;;;;;;;;;;;20.10;99.90;;;19.17;52.31;95989.56;10446291;28;2331;-74
2021/09/29 14:39:15;;;;;;;;;;;20.00;99.90;;;19.15;52.52;95989.09;10445601;28;2076;-75
2021/09/29 14:44:18;;;;;;;;;;;20.10;99.90;;;19.36;52.17;95988.41;10438756;28;2105;-76
2021/09/29 14:49:21;;;;;;;;;;;20.10;99.90;;;19.03;53.65;95994.38;10445560;28;2084;-78
2021/09/29 14:54:24;;;;;;;;;;;20.00;99.90;;;19.00;52.82;95986.03;10450127;28;2285;-78
2021/09/29 14:59:27;;;;;;;;;;;20.00;99.90;;;18.80;53.72;95996.47;10443645;28;2040;-76
2021/09/29 15:04:29;;;;;;;;;;;19.80;99.90;;;18.73;53.84;95989.91;10448600;28;2080;-75
2021/09/29 15:09:32;;;;;;;;;;;19.70;99.90;;;18.74;53.06;95986.06;10442341;28;2028;-76
2021/09/29 15:14:45;;;;;;;;;;;19.60;99.90;;;18.53;53.58;95986.66;10444519;28;2108;-77
2021/09/29 15:19:53;;;;;;;;;;;19.60;99.90;;;18.54;53.60;96001.06;10446706;28;2154;-76
2021/09/29 15:51:51;;;;;;;;;;;18.20;99.90;;;16.89;57.35;95999.53;10568395;27;2771;-76
2021/09/29 15:57:11;;;;;;;;;;;18.00;99.90;;;16.72;58.16;96006.41;10539530;28;2112;-77
2021/09/29 16:02:17;;;;;;;;;;;17.90;99.90;;;16.62;58.32;96006.63;10556702;28;2688;-76
2021/09/29 16:07:31;;;;;;;;;;;17.80;99.90;;;16.50;59.18;96003.66;10561571;28;2151;-79
2021/09/29 16:12:59;;;;;;;;;;;17.70;99.90;;;16.31;60.73;96003.00;10563487;28;1999;-79
2021/09/29 16:34:19;;;;;;;;;;;17.20;99.90;;;15.82;64.27;96015.38;10556673;28;2428;-78
2021/09/29 16:39:22;;;;;;;;;;;17.00;99.90;;;15.66;65.43;96017.56;10555411;28;2012;-77
2021/09/29 16:44:25;;;;;;;;;;;16.90;99.90;;;15.53;65.81;96029.97;10558119;28;2078;-77
2021/09/29 16:49:28;;;;;;;;;;;16.80;99.90;;;15.44;66.56;96034.47;10559795;28;2097;-77
2021/09/29 16:54:31;;;;;;;;;;;16.70;99.90;;;15.38;67.31;96046.47;10559996;28;4186;-77
2021/09/29 16:59:50;;;;;;;;;;;16.60;99.90;;;15.17;68.16;96047.94;10543090;28;2575;-77
2021/09/29 17:04:53;;;;;;;;;;;16.50;99.90;;;15.00;69.51;96060.09;10531465;28;2070;-78
2021/09/29 17:09:56;;;;;;;;;;;16.30;99.90;;;14.85;70.87;96068.44;10535682;28;2057;-79
2021/09/29 17:14:59;;;;;;;;;;;16.20;99.90;;;14.87;71.17;96071.66;10533818;28;2036;-80
2021/09/29 17:20:02;;;;;;;;;;;16.00;99.90;;;15.00;71.25;96087.16;10538361;28;2027;-80
2021/09/29 17:25:05;;;;;;;;;;;16.10;99.90;;;15.25;69.46;96087.88;10531103;28;1717;-80
2021/09/29 17:30:10;;;;;;;;;;;16.20;99.90;;;15.62;67.75;96144.72;10538454;28;2181;-79
2021/09/29 17:35:15;;;;;;;;;;;16.40;99.90;;;15.20;70.02;96166.47;10536983;28;2055;-79
2021/09/29 17:41:03;;;;;;;;;;;16.40;99.90;;;14.37;76.61;96190.22;10549539;28;2062;-78
2021/09/29 17:56:47;;;;;;;;;;;14.30;99.90;;;12.14;100.00;96244.47;10541122;28;2154;-76
2021/09/29 18:01:50;;;;;;;;;;;13.50;99.90;;;11.56;100.00;96255.50;10546799;28;2348;-79
2021/09/29 18:07:12;;;;;;;;;;;12.90;99.90;;;11.16;100.00;96269.69;10573258;28;2020;-77
2021/09/29 18:12:15;;;;;;;;;;;12.40;99.90;;;10.87;100.00;96300.78;10565816;28;2066;-77
2021/09/29 18:17:18;;;;;;;;;;;12.00;99.90;;;10.68;100.00;96317.34;10564155;28;1975;-78
2021/09/29 18:22:21;;;;;;;;;;;11.70;99.90;;;10.61;100.00;96308.72;10554289;28;2110;-77
2021/09/29 18:27:24;;;;;;;;;;;11.60;99.90;;;10.63;100.00;96332.69;10546068;28;2106;-78
2021/09/29 18:32:27;;;;;;;;;;;11.60;99.90;;;10.68;100.00;96341.56;10539784;28;1742;-77
2021/09/29 18:37:30;;;;;;;;;;;11.70;99.90;;;10.70;100.00;96344.81;10526615;28;2112;-77
2021/09/29 18:42:45;;;;;;;;;;;11.70;99.90;;;10.59;100.00;96347.69;10534551;28;2262;-77
2021/09/29 18:47:48;;;;;;;;;;;11.70;99.90;;;10.67;100.00;96350.69;10541795;28;2055;-77
2021/09/29 18:52:51;;;;;;;;;;;11.70;99.90;;;10.69;100.00;96347.78;10533494;28;2059;-78
2021/09/29 19:03:42;;;;;;;;;;;11.70;99.90;;;10.68;100.00;96363.06;10535776;28;1920;-77
2021/09/29 19:08:41;;;;;;;;;;;11.70;99.90;;;10.68;100.00;96383.78;10539695;28;1929;-78
2021/09/29 19:13:44;;;;;;;;;;;11.70;99.90;;;10.68;100.00;96381.09;10537067;28;2043;-78
2021/09/29 19:18:49;;;;;;;;;;;11.70;99.90;;;10.65;100.00;96352.84;10572857;28;2217;-78
2021/09/29 19:23:52;;;;;;;;;;;11.70;99.90;;;10.61;100.00;96375.94;10563580;28;2051;-77
2021/09/29 19:28:55;;;;;;;;;;;11.70;99.90;;;10.64;100.00;96370.06;10559261;28;2039;-78
2021/09/29 19:34:00;;;;;;;;;;;11.70;99.90;;;10.66;100.00;96370.59;10555103;28;1939;-77
2021/09/29 19:39:05;;;;;;;;;;;11.70;99.90;;;10.69;100.00;96375.47;10550749;28;1740;-78
2021/09/29 19:44:10;;;;;;;;;;;11.70;99.90;;;10.70;100.00;96387.03;10555900;28;2269;-80
2021/09/29 19:49:18;;;;;;;;;;;11.70;99.90;;;10.71;100.00;96396.72;10539617;28;2045;-76
2021/09/29 20:10:23;;;;;;;;;;;11.70;99.90;;;10.70;100.00;96398.59;10512569;28;2075;-76
2021/09/29 20:15:26;;;;;;;;;;;11.80;99.90;;;10.63;100.00;96400.69;10518950;28;2027;-76
2021/09/29 20:20:31;;;;;;;;;;;11.70;99.90;;;10.55;100.00;96422.66;10515952;28;2055;-76
2021/09/29 20:25:34;;;;;;;;;;;11.70;99.90;;;10.54;100.00;96431.81;10519917;28;2122;-75
2021/09/29 20:30:42;;;;;;;;;;;11.60;99.90;;;10.68;100.00;96432.16;10524523;28;2093;-76
2021/09/29 20:36:03;;;;;;;;;;;11.60;99.90;;;10.88;100.00;96436.88;10521677;28;2019;-76
2021/09/29 20:46:38;;;;;;;;;;;11.90;99.90;;;10.98;100.00;96458.47;10465498;28;2172;-76
2021/09/29 20:51:41;;;;;;;;;;;12.00;99.90;;;11.01;100.00;96463.34;10528230;28;2090;-76
2021/09/29 20:56:44;;;;;;;;;;;12.00;99.90;;;11.05;100.00;96476.00;10522324;28;2090;-76
2021/09/29 21:01:47;;;;;;;;;;;12.00;99.90;;;11.14;100.00;96481.72;10533963;28;2545;-78
2021/09/29 21:06:50;;;;;;;;;;;12.10;99.90;;;11.22;100.00;96489.31;10534605;28;1801;-79
2021/09/29 21:12:05;;;;;;;;;;;12.20;99.90;;;11.23;100.00;96493.63;10540520;28;2046;-78
2021/09/29 21:22:29;;;;;;;;;;;12.30;99.90;;;11.28;99.33;96504.41;10546546;28;2035;-79
2021/09/29 21:27:32;;;;;;;;;;;12.30;99.90;;;11.30;98.47;96518.41;10537062;28;1999;-79
2021/09/29 21:32:35;;;;;;;;;;;12.30;99.90;;;11.38;97.75;96526.00;10538730;28;1980;-77
2021/09/29 21:37:42;;;;;;;;;;;12.30;99.90;;;11.34;95.00;96530.28;10549119;28;2010;-78
2021/09/29 21:43:20;;;;;;;;;;;12.30;99.90;;;11.31;96.18;96525.41;10544509;28;1971;-80
2021/09/29 22:04:48;;;;;;;;;;;12.30;99.90;;;11.27;95.64;96556.63;10519321;28;2093;-78
2021/09/29 22:15:45;;;;;;;;;;;12.30;99.90;;;11.24;94.71;96564.41;10503332;28;2091;-76
2021/09/29 22:21:16;;;;;;;;;;;12.30;99.90;;;11.24;94.46;96564.41;10522557;28;2007;-77
2021/09/29 23:09:14;;;;;;;;;;;12.10;99.90;;;11.09;90.32;96600.09;10524226;28;2184;-77
2021/09/29 23:35:36;;;;;;;;;;;12.00;99.90;;;11.02;89.68;96626.38;10531204;28;2045;-78
2021/09/29 23:40:47;;;;;;;;;;;12.00;99.90;;;10.97;90.48;96620.94;10525372;28;2135;-78
2021/09/29 23:45:49;;;;;;;;;;;12.00;99.90;;;10.98;91.27;96620.69;10523608;28;2108;-77
2021/09/29 23:50:53;;;;;;;;;;;12.00;99.90;;;10.98;92.90;96614.50;10528451;28;2098;-78
2021/09/29 23:55:55;;;;;;;;;;;12.00;99.90;;;10.92;90.79;96613.63;10529500;28;2093;-78
